Oski — WYD3004 — position and weather

sailwx.info

Track history (hours):
 
Tides and Currents Weather Stations Pressure Air Temp Water Temp Dewpoint Dewpoint Depression Visibility Wind Speed Wind Dir Waves Ship Positions

Oski

Owner: BLUE & GOLD FLEET, SAN FRANCISCO, CA. More information available from US FCC via Universal Licensing System and Coast Guard Vessel Documentation Center.

Last reported at 2016-May-05 02:33 UTC. Time now 2016-May-05 02:57 UTC.
Position N 37°49' W 122°25'.

Length 24 m; draft 2 m.

Type: Passenger vessel. MMSI: 366985320.

Date/timePositionNaut miles runAvg speedWind from/ knotsBaromVisibWave heightAir tempDewpointWater temp
2016-May-05 02:33N 37°49' W 122°25'0 0.1
2016-May-05 01:33N 37°49' W 122°25'0 0.1
2016-May-05 00:26N 37°49' W 122°25'0 0.2
2016-May-04 23:34N 37°49' W 122°25'2 2.4
2016-May-04 22:33N 37°49' W 122°28'2 2.4
2016-May-04 21:33N 37°49' W 122°25'3 2.8
2016-May-04 20:33N 37°49' W 122°28'3 3.1
2016-May-04 19:32N 37°49' W 122°24'1 0.5
2016-May-04 18:33N 37°49' W 122°25'0 0.0
2016-May-04 17:28N 37°49' W 122°25'0 0.0
2016-May-04 16:34N 37°49' W 122°25'0 0.0
2016-May-04 15:27N 37°49' W 122°25'0 0.0
2016-May-04 14:33N 37°49' W 122°25'0 0.0
2016-May-04 13:32N 37°49' W 122°25'0 0.0
2016-May-04 12:31N 37°49' W 122°25'0 0.0
2016-May-04 11:32N 37°49' W 122°25'0 0.0
2016-May-04 10:30N 37°49' W 122°25'0 0.0
2016-May-04 09:32N 37°49' W 122°25'0 0.0
2016-May-04 08:30N 37°49' W 122°25'0 0.0
2016-May-04 07:29N 37°49' W 122°25'0 0.0
2016-May-04 06:31N 37°49' W 122°25'0 0.0
2016-May-04 05:31N 37°49' W 122°25'0 0.0
2016-May-04 04:31N 37°49' W 122°25'0 0.0
2016-May-04 03:33N 37°49' W 122°25'0 0.0
2016-May-04 02:32N 37°49' W 122°25'0 0.1
2016-May-04 01:33N 37°49' W 122°25'0 0.1
2016-May-04 00:33N 37°49' W 122°25'0 0.1
2016-May-03 23:33N 37°49' W 122°25'3 2.9
2016-May-03 22:33N 37°49' W 122°28'3 2.9
2016-May-03 21:33N 37°49' W 122°25'3 3.2
2016-May-03 20:33N 37°49' W 122°29'3 3.5
2016-May-03 19:33N 37°49' W 122°24'0 0.5
2016-May-03 18:33N 37°49' W 122°25'0 0.1
2016-May-03 17:27N 37°49' W 122°25'0 0.0
2016-May-03 16:33N 37°49' W 122°25'0 0.0
2016-May-03 15:34N 37°49' W 122°25'0 0.0
2016-May-03 14:33N 37°49' W 122°25'0 0.0
2016-May-03 13:32N 37°49' W 122°25'0 0.0
2016-May-03 12:31N 37°49' W 122°25'0 0.0
2016-May-03 11:28N 37°49' W 122°25'0 0.0
2016-May-03 10:30N 37°49' W 122°25'0 0.0
2016-May-03 09:24N 37°49' W 122°25'0 0.0
2016-May-03 08:33N 37°49' W 122°25'0 0.0
2016-May-03 07:32N 37°49' W 122°25'0 0.0
2016-May-03 06:31N 37°49' W 122°25'0 0.0
2016-May-03 05:32N 37°49' W 122°25'0 0.0
2016-May-03 04:31N 37°49' W 122°25'0 0.0
2016-May-03 03:27N 37°49' W 122°25'2 2.2
2016-May-03 02:33N 37°48' W 122°22'4 3.5
2016-May-03 01:33N 37°47' W 122°18'5 5.3
2016-May-03 00:32N 37°49' W 122°25'0 0.0
2016-May-02 23:29N 37°49' W 122°25'0 0.0
2016-May-02 22:32N 37°49' W 122°25'0 0.0
2016-May-02 21:29N 37°49' W 122°25'0 0.0
2016-May-02 20:34N 37°49' W 122°25'0 0.0
2016-May-02 19:29N 37°49' W 122°25'0 0.0
2016-May-02 18:31N 37°49' W 122°25'0 0.0
2016-May-02 17:28N 37°49' W 122°25'0 0.0
2016-May-02 16:34N 37°49' W 122°25'0 0.0
2016-May-02 15:29N 37°49' W 122°25'0 0.0
2016-May-02 14:32N 37°49' W 122°25'0 0.0
2016-May-02 13:34N 37°49' W 122°25'0 0.0
2016-May-02 12:33N 37°49' W 122°25'0 0.0
2016-May-02 11:31N 37°49' W 122°25'0 0.0
2016-May-02 10:32N 37°49' W 122°25'0 0.0
2016-May-02 09:33N 37°49' W 122°25'0 0.0
2016-May-02 08:32N 37°49' W 122°25'0 0.0
2016-May-02 07:32N 37°49' W 122°25'0 0.0
2016-May-02 06:33N 37°49' W 122°25'0 0.0
2016-May-02 05:31N 37°49' W 122°25'0 0.0
2016-May-02 04:34N 37°49' W 122°25'0 0.0
2016-May-02 03:31N 37°49' W 122°25'0 0.0
2016-May-02 02:32N 37°49' W 122°25'4 4.3
2016-May-02 01:33N 37°52' W 122°27'4 4.2
2016-May-02 00:34N 37°49' W 122°25'4 4.3
2016-May-01 23:33N 37°52' W 122°27'4 4.3
2016-May-01 22:33N 37°49' W 122°25'4 4.4
2016-May-01 21:34N 37°52' W 122°27'4 3.8
2016-May-01 20:24N 37°49' W 122°25'0 0.0
2016-May-01 19:33N 37°49' W 122°25'0 0.0
2016-May-01 18:32N 37°49' W 122°25'0 0.0
2016-May-01 17:31N 37°49' W 122°25'0 0.0
2016-May-01 16:28N 37°49' W 122°25'0 0.0
2016-May-01 15:26N 37°49' W 122°25'0 0.0
2016-May-01 14:31N 37°49' W 122°25'0 0.0
2016-May-01 13:28N 37°49' W 122°25'0 0.0
2016-May-01 12:33N 37°49' W 122°25'0 0.0
2016-May-01 11:33N 37°49' W 122°25'0 0.0
2016-May-01 10:32N 37°49' W 122°25'0 0.0
2016-May-01 09:32N 37°49' W 122°25'0 0.0
2016-May-01 08:33N 37°49' W 122°25'0 0.0
2016-May-01 07:33N 37°49' W 122°25'0 0.0
2016-May-01 06:27N 37°49' W 122°25'0 0.0
2016-May-01 04:33N 37°49' W 122°25'0 0.0
2016-May-01 03:26N 37°49' W 122°25'0 0.0
2016-May-01 02:21N 37°49' W 122°25'4 5.4
2016-May-01 01:33N 37°52' W 122°27'4 3.7
2016-May-01 00:33N 37°49' W 122°25'4 3.5
2016-Apr-30 23:34N 37°52' W 122°27'4 4.0
2016-Apr-30 22:32N 37°49' W 122°25'4 3.7
2016-Apr-30 21:34N 37°52' W 122°27'4 3.6
2016-Apr-30 20:32N 37°49' W 122°25'0 0.0
2016-Apr-30 19:27N 37°49' W 122°25'0 0.0
2016-Apr-30 18:30N 37°49' W 122°25'0 0.0
2016-Apr-30 17:33N 37°49' W 122°25'0 0.0
2016-Apr-30 16:31N 37°49' W 122°25'0 0.0
2016-Apr-30 15:33N 37°49' W 122°25'0 0.0
2016-Apr-30 14:32N 37°49' W 122°25'0 0.0
2016-Apr-30 13:31N 37°49' W 122°25'0 0.0
2016-Apr-30 12:32N 37°49' W 122°25'0 0.0
2016-Apr-30 11:31N 37°49' W 122°25'0 0.0
2016-Apr-30 10:31N 37°49' W 122°25'0 0.0
2016-Apr-30 09:33N 37°49' W 122°25'0 0.0
2016-Apr-30 08:32N 37°49' W 122°25'0 0.0
2016-Apr-30 07:26N 37°49' W 122°25'0 0.0
2016-Apr-30 06:31N 37°49' W 122°25'0 0.0
2016-Apr-30 05:32N 37°49' W 122°25'0 0.0
2016-Apr-30 04:33N 37°49' W 122°25'0 0.0
2016-Apr-30 03:33N 37°49' W 122°25'0 0.0
2016-Apr-30 02:32N 37°49' W 122°25'0 0.0
2016-Apr-30 01:26N 37°49' W 122°25'0 0.0
2016-Apr-30 00:32N 37°49' W 122°25'0 0.0
2016-Apr-29 23:33N 37°49' W 122°25'0 0.0
2016-Apr-29 22:30N 37°49' W 122°25'0 0.0
2016-Apr-29 21:32N 37°49' W 122°25'0 0.0
2016-Apr-29 20:32N 37°49' W 122°25'0 0.0
2016-Apr-29 19:26N 37°49' W 122°25'0 0.0
2016-Apr-29 18:30N 37°49' W 122°25'0 0.0
2016-Apr-29 17:32N 37°49' W 122°25'0 0.0
2016-Apr-29 16:32N 37°49' W 122°25'0 0.0
2016-Apr-29 15:31N 37°49' W 122°25'0 0.0
2016-Apr-29 14:30N 37°49' W 122°25'0 0.0
2016-Apr-29 13:31N 37°49' W 122°25'0 0.0
2016-Apr-29 12:31N 37°49' W 122°25'0 0.0
2016-Apr-29 11:33N 37°49' W 122°25'0 0.0
2016-Apr-29 10:32N 37°49' W 122°25'0 0.0
2016-Apr-29 09:31N 37°49' W 122°25'0 0.0
2016-Apr-29 08:33N 37°49' W 122°25'0 0.0
2016-Apr-29 07:32N 37°49' W 122°25'0 0.0
2016-Apr-29 06:33N 37°49' W 122°25'0 0.0
2016-Apr-29 05:31N 37°49' W 122°25'0 0.0
2016-Apr-29 04:32N 37°49' W 122°25'0 0.0
2016-Apr-29 03:31N 37°49' W 122°25'0 0.0
2016-Apr-29 02:30N 37°49' W 122°25'0 0.0
2016-Apr-29 01:31N 37°49' W 122°25'0 0.0
2016-Apr-29 00:30N 37°49' W 122°25'0 0.0
2016-Apr-28 23:31N 37°49' W 122°25'0 0.0
2016-Apr-28 22:24N 37°49' W 122°25'0 0.0
2016-Apr-28 21:33N 37°49' W 122°25'0 0.0
2016-Apr-28 20:33N 37°49' W 122°25'0 0.0
2016-Apr-28 19:26N 37°49' W 122°25'0 0.0
2016-Apr-28 18:33N 37°49' W 122°25'0 0.0
2016-Apr-28 17:33N 37°49' W 122°25'0 0.0
2016-Apr-28 16:32N 37°49' W 122°25'0 0.0
2016-Apr-28 15:28N 37°49' W 122°25'0 0.0
2016-Apr-28 14:33N 37°49' W 122°25'0 0.0
2016-Apr-28 13:31N 37°49' W 122°25'0 0.0
2016-Apr-28 12:33N 37°49' W 122°25'0 0.0
2016-Apr-28 11:31N 37°49' W 122°25'0 0.0
2016-Apr-28 10:32N 37°49' W 122°25'0 0.0
2016-Apr-28 09:27N 37°49' W 122°25'0 0.0
2016-Apr-28 08:31N 37°49' W 122°25'0 0.0
2016-Apr-28 07:32N 37°49' W 122°25'0 0.0
2016-Apr-28 06:32N 37°49' W 122°25'0 0.0
2016-Apr-28 05:28N 37°49' W 122°25'0 0.0
2016-Apr-28 04:32N 37°49' W 122°25'0 0.0
2016-Apr-28 03:26N 37°49' W 122°25'0 0.0
2016-Apr-28 02:28N 37°49' W 122°25'0 0.0
2016-Apr-28 01:26N 37°49' W 122°25'0 0.0
2016-Apr-28 00:30N 37°49' W 122°25'0 0.0
2016-Apr-27 23:32N 37°49' W 122°25'0 0.0
2016-Apr-27 22:32N 37°49' W 122°25'0 0.0
2016-Apr-27 21:20N 37°49' W 122°25'  
Track history (hours):
 
Tides and Currents Weather Stations Pressure Air Temp Water Temp Dewpoint Dewpoint Depression Visibility Wind Speed Wind Dir Waves Ship Positions

Oski

Owner: BLUE & GOLD FLEET, SAN FRANCISCO, CA. More information available from US FCC via Universal Licensing System and Coast Guard Vessel Documentation Center.

Last reported at 2016-May-05 02:33 UTC. Time now 2016-May-05 02:57 UTC.
Position N 37°49' W 122°25'.

Length 24 m; draft 2 m.

Type: Passenger vessel. MMSI: 366985320.

Date/timePositionNaut miles runAvg speedWind from/ knotsBaromVisibWave heightAir tempDewpointWater temp
2016-May-05 02:33N 37°49' W 122°25'0 0.1
2016-May-05 01:33N 37°49' W 122°25'0 0.1
2016-May-05 00:26N 37°49' W 122°25'0 0.2
2016-May-04 23:34N 37°49' W 122°25'2 2.4
2016-May-04 22:33N 37°49' W 122°28'2 2.4
2016-May-04 21:33N 37°49' W 122°25'3 2.8
2016-May-04 20:33N 37°49' W 122°28'3 3.1
2016-May-04 19:32N 37°49' W 122°24'1 0.5
2016-May-04 18:33N 37°49' W 122°25'0 0.0
2016-May-04 17:28N 37°49' W 122°25'0 0.0
2016-May-04 16:34N 37°49' W 122°25'0 0.0
2016-May-04 15:27N 37°49' W 122°25'0 0.0
2016-May-04 14:33N 37°49' W 122°25'0 0.0
2016-May-04 13:32N 37°49' W 122°25'0 0.0
2016-May-04 12:31N 37°49' W 122°25'0 0.0
2016-May-04 11:32N 37°49' W 122°25'0 0.0
2016-May-04 10:30N 37°49' W 122°25'0 0.0
2016-May-04 09:32N 37°49' W 122°25'0 0.0
2016-May-04 08:30N 37°49' W 122°25'0 0.0
2016-May-04 07:29N 37°49' W 122°25'0 0.0
2016-May-04 06:31N 37°49' W 122°25'0 0.0
2016-May-04 05:31N 37°49' W 122°25'0 0.0
2016-May-04 04:31N 37°49' W 122°25'0 0.0
2016-May-04 03:33N 37°49' W 122°25'0 0.0
2016-May-04 02:32N 37°49' W 122°25'0 0.1
2016-May-04 01:33N 37°49' W 122°25'0 0.1
2016-May-04 00:33N 37°49' W 122°25'0 0.1
2016-May-03 23:33N 37°49' W 122°25'3 2.9
2016-May-03 22:33N 37°49' W 122°28'3 2.9
2016-May-03 21:33N 37°49' W 122°25'3 3.2
2016-May-03 20:33N 37°49' W 122°29'3 3.5
2016-May-03 19:33N 37°49' W 122°24'0 0.5
2016-May-03 18:33N 37°49' W 122°25'0 0.1
2016-May-03 17:27N 37°49' W 122°25'0 0.0
2016-May-03 16:33N 37°49' W 122°25'0 0.0
2016-May-03 15:34N 37°49' W 122°25'0 0.0
2016-May-03 14:33N 37°49' W 122°25'0 0.0
2016-May-03 13:32N 37°49' W 122°25'0 0.0
2016-May-03 12:31N 37°49' W 122°25'0 0.0
2016-May-03 11:28N 37°49' W 122°25'0 0.0
2016-May-03 10:30N 37°49' W 122°25'0 0.0
2016-May-03 09:24N 37°49' W 122°25'0 0.0
2016-May-03 08:33N 37°49' W 122°25'0 0.0
2016-May-03 07:32N 37°49' W 122°25'0 0.0
2016-May-03 06:31N 37°49' W 122°25'0 0.0
2016-May-03 05:32N 37°49' W 122°25'0 0.0
2016-May-03 04:31N 37°49' W 122°25'0 0.0
2016-May-03 03:27N 37°49' W 122°25'2 2.2
2016-May-03 02:33N 37°48' W 122°22'4 3.5
2016-May-03 01:33N 37°47' W 122°18'5 5.3
2016-May-03 00:32N 37°49' W 122°25'0 0.0
2016-May-02 23:29N 37°49' W 122°25'0 0.0
2016-May-02 22:32N 37°49' W 122°25'0 0.0
2016-May-02 21:29N 37°49' W 122°25'0 0.0
2016-May-02 20:34N 37°49' W 122°25'0 0.0
2016-May-02 19:29N 37°49' W 122°25'0 0.0
2016-May-02 18:31N 37°49' W 122°25'0 0.0
2016-May-02 17:28N 37°49' W 122°25'0 0.0
2016-May-02 16:34N 37°49' W 122°25'0 0.0
2016-May-02 15:29N 37°49' W 122°25'0 0.0
2016-May-02 14:32N 37°49' W 122°25'0 0.0
2016-May-02 13:34N 37°49' W 122°25'0 0.0
2016-May-02 12:33N 37°49' W 122°25'0 0.0
2016-May-02 11:31N 37°49' W 122°25'0 0.0
2016-May-02 10:32N 37°49' W 122°25'0 0.0
2016-May-02 09:33N 37°49' W 122°25'0 0.0
2016-May-02 08:32N 37°49' W 122°25'0 0.0
2016-May-02 07:32N 37°49' W 122°25'0 0.0
2016-May-02 06:33N 37°49' W 122°25'0 0.0
2016-May-02 05:31N 37°49' W 122°25'0 0.0
2016-May-02 04:34N 37°49' W 122°25'0 0.0
2016-May-02 03:31N 37°49' W 122°25'0 0.0
2016-May-02 02:32N 37°49' W 122°25'4 4.3
2016-May-02 01:33N 37°52' W 122°27'4 4.2
2016-May-02 00:34N 37°49' W 122°25'4 4.3
2016-May-01 23:33N 37°52' W 122°27'4 4.3
2016-May-01 22:33N 37°49' W 122°25'4 4.4
2016-May-01 21:34N 37°52' W 122°27'4 3.8
2016-May-01 20:24N 37°49' W 122°25'0 0.0
2016-May-01 19:33N 37°49' W 122°25'0 0.0
2016-May-01 18:32N 37°49' W 122°25'0 0.0
2016-May-01 17:31N 37°49' W 122°25'0 0.0
2016-May-01 16:28N 37°49' W 122°25'0 0.0
2016-May-01 15:26N 37°49' W 122°25'0 0.0
2016-May-01 14:31N 37°49' W 122°25'0 0.0
2016-May-01 13:28N 37°49' W 122°25'0 0.0
2016-May-01 12:33N 37°49' W 122°25'0 0.0
2016-May-01 11:33N 37°49' W 122°25'0 0.0
2016-May-01 10:32N 37°49' W 122°25'0 0.0
2016-May-01 09:32N 37°49' W 122°25'0 0.0
2016-May-01 08:33N 37°49' W 122°25'0 0.0
2016-May-01 07:33N 37°49' W 122°25'0 0.0
2016-May-01 06:27N 37°49' W 122°25'0 0.0
2016-May-01 04:33N 37°49' W 122°25'0 0.0
2016-May-01 03:26N 37°49' W 122°25'0 0.0
2016-May-01 02:21N 37°49' W 122°25'4 5.4
2016-May-01 01:33N 37°52' W 122°27'4 3.7
2016-May-01 00:33N 37°49' W 122°25'4 3.5
2016-Apr-30 23:34N 37°52' W 122°27'4 4.0
2016-Apr-30 22:32N 37°49' W 122°25'4 3.7
2016-Apr-30 21:34N 37°52' W 122°27'4 3.6
2016-Apr-30 20:32N 37°49' W 122°25'0 0.0
2016-Apr-30 19:27N 37°49' W 122°25'0 0.0
2016-Apr-30 18:30N 37°49' W 122°25'0 0.0
2016-Apr-30 17:33N 37°49' W 122°25'0 0.0
2016-Apr-30 16:31N 37°49' W 122°25'0 0.0
2016-Apr-30 15:33N 37°49' W 122°25'0 0.0
2016-Apr-30 14:32N 37°49' W 122°25'0 0.0
2016-Apr-30 13:31N 37°49' W 122°25'0 0.0
2016-Apr-30 12:32N 37°49' W 122°25'0 0.0
2016-Apr-30 11:31N 37°49' W 122°25'0 0.0
2016-Apr-30 10:31N 37°49' W 122°25'0 0.0
2016-Apr-30 09:33N 37°49' W 122°25'0 0.0
2016-Apr-30 08:32N 37°49' W 122°25'0 0.0
2016-Apr-30 07:26N 37°49' W 122°25'0 0.0
2016-Apr-30 06:31N 37°49' W 122°25'0 0.0
2016-Apr-30 05:32N 37°49' W 122°25'0 0.0
2016-Apr-30 04:33N 37°49' W 122°25'0 0.0
2016-Apr-30 03:33N 37°49' W 122°25'0 0.0
2016-Apr-30 02:32N 37°49' W 122°25'0 0.0
2016-Apr-30 01:26N 37°49' W 122°25'0 0.0
2016-Apr-30 00:32N 37°49' W 122°25'0 0.0
2016-Apr-29 23:33N 37°49' W 122°25'0 0.0
2016-Apr-29 22:30N 37°49' W 122°25'0 0.0
2016-Apr-29 21:32N 37°49' W 122°25'0 0.0
2016-Apr-29 20:32N 37°49' W 122°25'0 0.0
2016-Apr-29 19:26N 37°49' W 122°25'0 0.0
2016-Apr-29 18:30N 37°49' W 122°25'0 0.0
2016-Apr-29 17:32N 37°49' W 122°25'0 0.0
2016-Apr-29 16:32N 37°49' W 122°25'0 0.0
2016-Apr-29 15:31N 37°49' W 122°25'0 0.0
2016-Apr-29 14:30N 37°49' W 122°25'0 0.0
2016-Apr-29 13:31N 37°49' W 122°25'0 0.0
2016-Apr-29 12:31N 37°49' W 122°25'0 0.0
2016-Apr-29 11:33N 37°49' W 122°25'0 0.0
2016-Apr-29 10:32N 37°49' W 122°25'0 0.0
2016-Apr-29 09:31N 37°49' W 122°25'0 0.0
2016-Apr-29 08:33N 37°49' W 122°25'0 0.0
2016-Apr-29 07:32N 37°49' W 122°25'0 0.0
2016-Apr-29 06:33N 37°49' W 122°25'0 0.0
2016-Apr-29 05:31N 37°49' W 122°25'0 0.0
2016-Apr-29 04:32N 37°49' W 122°25'0 0.0
2016-Apr-29 03:31N 37°49' W 122°25'0 0.0
2016-Apr-29 02:30N 37°49' W 122°25'0 0.0
2016-Apr-29 01:31N 37°49' W 122°25'0 0.0
2016-Apr-29 00:30N 37°49' W 122°25'0 0.0
2016-Apr-28 23:31N 37°49' W 122°25'0 0.0
2016-Apr-28 22:24N 37°49' W 122°25'0 0.0
2016-Apr-28 21:33N 37°49' W 122°25'0 0.0
2016-Apr-28 20:33N 37°49' W 122°25'0 0.0
2016-Apr-28 19:26N 37°49' W 122°25'0 0.0
2016-Apr-28 18:33N 37°49' W 122°25'0 0.0
2016-Apr-28 17:33N 37°49' W 122°25'0 0.0
2016-Apr-28 16:32N 37°49' W 122°25'0 0.0
2016-Apr-28 15:28N 37°49' W 122°25'0 0.0
2016-Apr-28 14:33N 37°49' W 122°25'0 0.0
2016-Apr-28 13:31N 37°49' W 122°25'0 0.0
2016-Apr-28 12:33N 37°49' W 122°25'0 0.0
2016-Apr-28 11:31N 37°49' W 122°25'0 0.0
2016-Apr-28 10:32N 37°49' W 122°25'0 0.0
2016-Apr-28 09:27N 37°49' W 122°25'0 0.0
2016-Apr-28 08:31N 37°49' W 122°25'0 0.0
2016-Apr-28 07:32N 37°49' W 122°25'0 0.0
2016-Apr-28 06:32N 37°49' W 122°25'0 0.0
2016-Apr-28 05:28N 37°49' W 122°25'0 0.0
2016-Apr-28 04:32N 37°49' W 122°25'0 0.0
2016-Apr-28 03:26N 37°49' W 122°25'0 0.0
2016-Apr-28 02:28N 37°49' W 122°25'0 0.0
2016-Apr-28 01:26N 37°49' W 122°25'0 0.0
2016-Apr-28 00:30N 37°49' W 122°25'0 0.0
2016-Apr-27 23:32N 37°49' W 122°25'0 0.0
2016-Apr-27 22:32N 37°49' W 122°25'0 0.0
2016-Apr-27 21:20N 37°49' W 122°25'  

Dump ship's entire track history